Terminal Aerodrome Forecast
Issued by NWS

Home | Current Version | Previous Version | Text Only | Print | Product List | Glossary On
Versions: 1 2 3 4 5 6 7 8 9 10 11 12 13 14 15
000
FTUS46 KMTR 300522
TAFSTS
TAF
KSTS 300522Z 3006/3106 18005KT P6SM SKC
     FM301200 00000KT 5SM BR OVC010
     FM301700 VRB03KT P6SM SCT010 SCT200
     FM301900 18010KT P6SM SKC
     FM310400 18005KT P6SM SKC=

USA.gov is the U.S. government's official web portal to all federal, state and local government web resources and services.